Hugur — TFQG — position and weather

sailwx.info

Track history (hours):
 
Tides and Currents Weather Stations Pressure Air Temp Water Temp Dewpoint Dewpoint Depression Visibility Wind Speed Wind Dir Waves Ship Positions

Hugur

Last reported at 2017-Sep-25 02:32 UTC. Time now 2017-Dec-16 07:17 UTC.
Position N 36°10' W 005°14'.
Warning: this ship's position is months out of date.

Length 16 m; draft 2.2 m.

Type: Sailing vessel. MMSI: 251434110.

Date/timePositionNaut miles runAvg speedWind from/ knotsBaromVisibWave heightAir tempDewpointWater temp
2017-Sep-25 02:32N 36°10' W 005°14'0 6.8
2017-Sep-25 02:30N 36°10' W 005°15'3 6.9
2017-Sep-25 02:00N 36°08' W 005°18'3 5.7
2017-Sep-25 01:30N 36°07' W 005°21'3 0.1
2017-Sep-24 01:39N 36°10' W 005°22'0 0.0
2017-Sep-24 01:24N 36°10' W 005°22'0 0.0
2017-Sep-23 23:33N 36°10' W 005°22'0 3.0
2017-Sep-23 23:30N 36°10' W 005°22'2 3.2
2017-Sep-23 23:00N 36°08' W 005°22'13 4.5
2017-Sep-23 20:09N 36°00' W 005°34'1 6.6
2017-Sep-23 19:59N 35°60' W 005°35'201 4.8
2017-Sep-22 02:01N 37°46' W 009°09'4 8.1
2017-Sep-22 01:30N 37°50' W 009°09'4 8.3
2017-Sep-22 01:00N 37°54' W 009°10'4 8.2
2017-Sep-22 00:30N 37°58' W 009°11'4 8.5
2017-Sep-22 00:00N 38°02' W 009°11'4 8.5
2017-Sep-21 23:30N 38°07' W 009°12'4 8.2
2017-Sep-21 23:01N 38°10' W 009°13'4 8.3
2017-Sep-21 22:31N 38°14' W 009°16'4 8.3
2017-Sep-21 22:01N 38°18' W 009°19'4 8.8
2017-Sep-21 21:30N 38°22' W 009°20'4 8.2
2017-Sep-21 21:00N 38°26' W 009°20'4 7.4
2017-Sep-21 20:31N 38°30' W 009°21'4 7.0
2017-Sep-21 20:00N 38°33' W 009°21'4 7.3
2017-Sep-21 19:31N 38°37' W 009°21'5 9.2
2017-Sep-21 19:00N 38°41' W 009°18'510.5
2017-Sep-21 18:30N 38°41' W 009°11'1 1.5
2017-Sep-21 17:48N 38°42' W 009°10'0 0.0
2017-Sep-21 17:09N 38°42' W 009°10'0 0.0
2017-Sep-21 16:54N 38°42' W 009°10'0 0.0
2017-Sep-21 16:30N 38°42' W 009°10'0 0.0
2017-Sep-21 15:48N 38°42' W 009°10'0 0.0
2017-Sep-21 15:15N 38°42' W 009°10'0 0.0
2017-Sep-21 15:00N 38°42' W 009°10'0 0.0
2017-Sep-21 14:09N 38°42' W 009°10'0 0.0
2017-Sep-21 14:00N 38°42' W 009°10'0 0.0
2017-Sep-21 13:25N 38°42' W 009°10'0 0.0
2017-Sep-21 13:00N 38°42' W 009°10'0 0.9
2017-Sep-21 12:27N 38°42' W 009°10'3 6.3
2017-Sep-21 12:00N 38°41' W 009°13'4 7.2
2017-Sep-21 11:30N 38°41' W 009°18'4 7.1
2017-Sep-21 11:00N 38°40' W 009°22'4 7.0
2017-Sep-21 10:30N 38°41' W 009°26'3 6.9
2017-Sep-21 10:00N 38°43' W 009°30'4 7.9
2017-Sep-21 09:30N 38°47' W 009°31'4 7.9
2017-Sep-21 09:00N 38°51' W 009°32'4 8.1
2017-Sep-21 08:30N 38°55' W 009°33'4 8.0
2017-Sep-21 08:00N 38°59' W 009°33'4 8.0
2017-Sep-21 07:30N 39°03' W 009°34'4 8.1
2017-Sep-21 07:00N 39°07' W 009°33'4 7.9
2017-Sep-21 06:30N 39°10' W 009°32'4 7.6
2017-Sep-21 06:00N 39°14' W 009°31'4 7.5
2017-Sep-21 05:30N 39°18' W 009°30'4 7.2
2017-Sep-21 05:00N 39°21' W 009°28'4 7.2
2017-Sep-21 04:30N 39°25' W 009°27'  
2017-Sep-15 09:01N 48°26' W 005°17'0 6.8
2017-Sep-15 08:59N 48°26' W 005°17'4 7.1
2017-Sep-15 08:28N 48°29' W 005°14'3 7.3
2017-Sep-15 08:00N 48°32' W 005°10'4 7.4
2017-Sep-15 07:30N 48°34' W 005°07'4 7.7
2017-Sep-15 07:00N 48°37' W 005°02'4 8.2
2017-Sep-15 06:30N 48°39' W 004°57'4 8.3
2017-Sep-15 06:00N 48°42' W 004°52'4 8.2
2017-Sep-15 05:29N 48°44' W 004°46'4 8.6
2017-Sep-15 04:59N 48°46' W 004°41'  
Track history (hours):
 
Tides and Currents Weather Stations Pressure Air Temp Water Temp Dewpoint Dewpoint Depression Visibility Wind Speed Wind Dir Waves Ship Positions

Hugur

Last reported at 2017-Sep-25 02:32 UTC. Time now 2017-Dec-16 07:17 UTC.
Position N 36°10' W 005°14'.
Warning: this ship's position is months out of date.

Length 16 m; draft 2.2 m.

Type: Sailing vessel. MMSI: 251434110.

Date/timePositionNaut miles runAvg speedWind from/ knotsBaromVisibWave heightAir tempDewpointWater temp
2017-Sep-25 02:32N 36°10' W 005°14'0 6.8
2017-Sep-25 02:30N 36°10' W 005°15'3 6.9
2017-Sep-25 02:00N 36°08' W 005°18'3 5.7
2017-Sep-25 01:30N 36°07' W 005°21'3 0.1
2017-Sep-24 01:39N 36°10' W 005°22'0 0.0
2017-Sep-24 01:24N 36°10' W 005°22'0 0.0
2017-Sep-23 23:33N 36°10' W 005°22'0 3.0
2017-Sep-23 23:30N 36°10' W 005°22'2 3.2
2017-Sep-23 23:00N 36°08' W 005°22'13 4.5
2017-Sep-23 20:09N 36°00' W 005°34'1 6.6
2017-Sep-23 19:59N 35°60' W 005°35'201 4.8
2017-Sep-22 02:01N 37°46' W 009°09'4 8.1
2017-Sep-22 01:30N 37°50' W 009°09'4 8.3
2017-Sep-22 01:00N 37°54' W 009°10'4 8.2
2017-Sep-22 00:30N 37°58' W 009°11'4 8.5
2017-Sep-22 00:00N 38°02' W 009°11'4 8.5
2017-Sep-21 23:30N 38°07' W 009°12'4 8.2
2017-Sep-21 23:01N 38°10' W 009°13'4 8.3
2017-Sep-21 22:31N 38°14' W 009°16'4 8.3
2017-Sep-21 22:01N 38°18' W 009°19'4 8.8
2017-Sep-21 21:30N 38°22' W 009°20'4 8.2
2017-Sep-21 21:00N 38°26' W 009°20'4 7.4
2017-Sep-21 20:31N 38°30' W 009°21'4 7.0
2017-Sep-21 20:00N 38°33' W 009°21'4 7.3
2017-Sep-21 19:31N 38°37' W 009°21'5 9.2
2017-Sep-21 19:00N 38°41' W 009°18'510.5
2017-Sep-21 18:30N 38°41' W 009°11'1 1.5
2017-Sep-21 17:48N 38°42' W 009°10'0 0.0
2017-Sep-21 17:09N 38°42' W 009°10'0 0.0
2017-Sep-21 16:54N 38°42' W 009°10'0 0.0
2017-Sep-21 16:30N 38°42' W 009°10'0 0.0
2017-Sep-21 15:48N 38°42' W 009°10'0 0.0
2017-Sep-21 15:15N 38°42' W 009°10'0 0.0
2017-Sep-21 15:00N 38°42' W 009°10'0 0.0
2017-Sep-21 14:09N 38°42' W 009°10'0 0.0
2017-Sep-21 14:00N 38°42' W 009°10'0 0.0
2017-Sep-21 13:25N 38°42' W 009°10'0 0.0
2017-Sep-21 13:00N 38°42' W 009°10'0 0.9
2017-Sep-21 12:27N 38°42' W 009°10'3 6.3
2017-Sep-21 12:00N 38°41' W 009°13'4 7.2
2017-Sep-21 11:30N 38°41' W 009°18'4 7.1
2017-Sep-21 11:00N 38°40' W 009°22'4 7.0
2017-Sep-21 10:30N 38°41' W 009°26'3 6.9
2017-Sep-21 10:00N 38°43' W 009°30'4 7.9
2017-Sep-21 09:30N 38°47' W 009°31'4 7.9
2017-Sep-21 09:00N 38°51' W 009°32'4 8.1
2017-Sep-21 08:30N 38°55' W 009°33'4 8.0
2017-Sep-21 08:00N 38°59' W 009°33'4 8.0
2017-Sep-21 07:30N 39°03' W 009°34'4 8.1
2017-Sep-21 07:00N 39°07' W 009°33'4 7.9
2017-Sep-21 06:30N 39°10' W 009°32'4 7.6
2017-Sep-21 06:00N 39°14' W 009°31'4 7.5
2017-Sep-21 05:30N 39°18' W 009°30'4 7.2
2017-Sep-21 05:00N 39°21' W 009°28'4 7.2
2017-Sep-21 04:30N 39°25' W 009°27'  
2017-Sep-15 09:01N 48°26' W 005°17'0 6.8
2017-Sep-15 08:59N 48°26' W 005°17'4 7.1
2017-Sep-15 08:28N 48°29' W 005°14'3 7.3
2017-Sep-15 08:00N 48°32' W 005°10'4 7.4
2017-Sep-15 07:30N 48°34' W 005°07'4 7.7
2017-Sep-15 07:00N 48°37' W 005°02'4 8.2
2017-Sep-15 06:30N 48°39' W 004°57'4 8.3
2017-Sep-15 06:00N 48°42' W 004°52'4 8.2
2017-Sep-15 05:29N 48°44' W 004°46'4 8.6
2017-Sep-15 04:59N 48°46' W 004°41'  

Dump ship's entire track history